Time;durP1;ratioP1;P1;durP2;ratioP2;P2;SDS_P1;SDS_P2;PMS_P1;PMS_P2;Temp;Humidity;BMP_temperature;BMP_pressure;BME280_temperature;BME280_humidity;BME280_pressure;Samples;Min_cycle;Max_cycle;Signal;HPM_P1;HPM_P2
2021/01/20 07:58:27;;;;;;;14.97;8.67;;;5.90;1.00;;;;;;4882027;29;20500;-91
2021/01/20 08:00:54;;;;;;;10.70;7.10;;;5.90;1.00;;;;;;4883876;29;20502;-92
2021/01/20 08:03:34;;;;;;;7.73;5.43;;;6.00;1.00;;;;;;4883982;29;20770;-91
2021/01/20 08:06:07;;;;;;;10.60;6.57;;;6.10;1.00;;;;;;4877856;29;20484;-91
2021/01/20 08:08:49;;;;;;;30.57;19.00;;;6.10;1.00;;;;;;4878456;29;20565;-91
2021/01/20 08:11:20;;;;;;;6.70;5.47;;;6.10;1.00;;;;;;4883802;29;20758;-91
2021/01/20 08:13:50;;;;;;;11.00;7.00;;;6.10;1.00;;;;;;4884114;29;20470;-92
2021/01/20 08:16:18;;;;;;;10.87;6.77;;;6.10;1.00;;;;;;4883727;29;20483;-92
2021/01/20 08:18:46;;;;;;;8.70;5.97;;;6.20;1.00;;;;;;4883690;29;20491;-92
2021/01/20 08:21:13;;;;;;;10.53;7.67;;;6.20;1.00;;;;;;4883448;29;20564;-91
2021/01/20 08:23:50;;;;;;;8.50;6.67;;;6.20;1.00;;;;;;4883673;29;20463;-92
2021/01/20 08:26:27;;;;;;;8.33;4.30;;;6.20;1.00;;;;;;4883649;29;20469;-91
2021/01/20 08:29:09;;;;;;;14.43;9.40;;;6.20;1.00;;;;;;4883372;29;20551;-92
2021/01/20 08:31:38;;;;;;;6.40;5.60;;;6.30;1.00;;;;;;4884281;29;20765;-91
2021/01/20 08:34:34;;;;;;;5.70;4.60;;;6.30;1.00;;;;;;4884008;29;20490;-91
2021/01/20 08:37:04;;;;;;;4.27;3.80;;;6.20;1.00;;;;;;4864378;29;20485;-91
2021/01/20 08:39:34;;;;;;;4.20;3.80;;;6.30;1.00;;;;;;4883432;29;20477;-91
2021/01/20 08:42:28;;;;;;;3.90;3.20;;;6.30;1.00;;;;;;4881851;29;20611;-91
2021/01/20 08:45:08;;;;;;;4.07;3.70;;;6.30;1.00;;;;;;4862533;29;20509;-92
2021/01/20 08:47:50;;;;;;;4.50;4.03;;;6.30;1.00;;;;;;4882990;29;20851;-91
2021/01/20 08:50:19;;;;;;;5.17;4.67;;;6.30;1.00;;;;;;4883618;29;20477;-91
2021/01/20 08:52:49;;;;;;;4.47;3.97;;;6.30;1.00;;;;;;4884900;29;20485;-91
2021/01/20 08:55:24;;;;;;;4.87;3.60;;;6.40;1.00;;;;;;4887051;29;20596;-91
2021/01/20 08:58:22;;;;;;;4.70;3.80;;;6.50;1.00;;;;;;4886877;29;20509;-91
2021/01/20 09:00:52;;;;;;;4.97;4.27;;;6.60;1.00;;;;;;4881718;29;20603;-91
2021/01/20 09:03:21;;;;;;;5.10;4.40;;;6.60;1.00;;;;;;4887063;29;20502;-92
2021/01/20 09:05:49;;;;;;;5.27;4.20;;;6.60;1.00;;;;;;4886372;29;20463;-91
2021/01/20 09:08:16;;;;;;;5.10;3.70;;;6.70;1.00;;;;;;4887015;29;20765;-92
2021/01/20 09:10:44;;;;;;;4.93;4.43;;;6.60;1.00;;;;;;4886777;29;20481;-92
2021/01/20 09:13:12;;;;;;;4.33;3.93;;;6.60;1.00;;;;;;4886684;29;20489;-91
2021/01/20 09:15:39;;;;;;;4.37;3.97;;;6.60;1.00;;;;;;4886267;29;20484;-91
2021/01/20 09:18:07;;;;;;;4.10;3.70;;;6.60;1.00;;;;;;4886453;29;20477;-91
2021/01/20 09:20:36;;;;;;;5.77;4.53;;;6.60;1.00;;;;;;4887142;29;20857;-91
2021/01/20 09:23:04;;;;;;;8.00;4.47;;;6.70;1.00;;;;;;4886358;29;20910;-91
2021/01/20 09:25:31;;;;;;;4.93;4.43;;;6.70;1.00;;;;;;4885882;29;20474;-91
2021/01/20 09:27:58;;;;;;;5.80;4.60;;;6.80;1.00;;;;;;4885728;29;20498;-92
2021/01/20 09:30:25;;;;;;;4.83;4.23;;;6.80;1.00;;;;;;4886375;29;20517;-91
2021/01/20 09:32:52;;;;;;;4.80;4.20;;;6.80;1.00;;;;;;4886698;29;20492;-91
2021/01/20 09:35:19;;;;;;;7.80;4.03;;;6.80;1.00;;;;;;4885918;29;20493;-91
2021/01/20 09:37:47;;;;;;;5.60;4.30;;;6.80;1.00;;;;;;4885874;29;20485;-91
2021/01/20 09:40:17;;;;;;;4.93;4.43;;;6.70;1.00;;;;;;4886648;29;20467;-91
2021/01/20 09:42:47;;;;;;;4.73;4.10;;;6.70;1.00;;;;;;4885845;29;20482;-91
2021/01/20 09:45:17;;;;;;;5.80;4.23;;;6.60;1.00;;;;;;4886096;29;20458;-91
2021/01/20 09:47:45;;;;;;;6.20;3.67;;;6.60;1.00;;;;;;4886256;29;20463;-92
2021/01/20 09:50:13;;;;;;;5.50;4.10;;;6.60;1.00;;;;;;4886670;29;20485;-91
2021/01/20 09:52:43;;;;;;;5.83;4.03;;;6.70;1.00;;;;;;4880167;29;20457;-91
2021/01/20 09:55:11;;;;;;;5.07;4.57;;;6.70;1.00;;;;;;4885457;29;20805;-91
2021/01/20 09:57:38;;;;;;;5.80;4.17;;;6.70;1.00;;;;;;4885272;29;20510;-91
2021/01/20 10:00:06;;;;;;;5.13;4.30;;;6.70;1.00;;;;;;4886024;29;20482;-91
2021/01/20 10:02:33;;;;;;;5.80;4.40;;;6.70;1.00;;;;;;4885466;29;20494;-91
2021/01/20 10:05:00;;;;;;;4.43;4.03;;;6.70;1.00;;;;;;4884405;29;20448;-91
2021/01/20 10:07:27;;;;;;;5.07;4.57;;;6.70;1.00;;;;;;4886135;29;20485;-91
2021/01/20 10:09:57;;;;;;;4.67;4.27;;;6.70;1.00;;;;;;4885972;29;20479;-92
2021/01/20 10:12:26;;;;;;;4.93;4.33;;;6.60;1.00;;;;;;4885382;29;20493;-91
2021/01/20 10:14:53;;;;;;;5.07;3.97;;;6.70;1.00;;;;;;4885335;29;20458;-91
2021/01/20 10:17:20;;;;;;;5.40;4.10;;;6.70;1.00;;;;;;4885515;29;20897;-91
2021/01/20 10:19:47;;;;;;;8.00;4.23;;;6.70;1.00;;;;;;4885337;29;20907;-91
2021/01/20 10:22:16;;;;;;;8.77;4.23;;;6.80;1.00;;;;;;4886055;29;20541;-91
2021/01/20 10:24:42;;;;;;;7.00;4.40;;;6.90;1.00;;;;;;4885465;29;20466;-91
2021/01/20 10:27:10;;;;;;;5.67;5.10;;;6.90;1.00;;;;;;4884701;29;20547;-91
2021/01/20 10:29:37;;;;;;;6.00;4.50;;;6.90;1.00;;;;;;4880845;29;20470;-91
2021/01/20 10:32:07;;;;;;;6.03;4.73;;;7.00;1.00;;;;;;4884465;29;20499;-91
2021/01/20 10:34:34;;;;;;;4.63;4.23;;;7.00;1.00;;;;;;4885532;29;20462;-91
2021/01/20 10:37:00;;;;;;;5.10;4.23;;;7.10;1.00;;;;;;4884766;29;20779;-91
2021/01/20 10:39:27;;;;;;;5.50;3.87;;;7.20;1.00;;;;;;4885364;29;20481;-91
2021/01/20 10:41:55;;;;;;;4.00;3.60;;;7.30;1.00;;;;;;4884987;29;20510;-91
2021/01/20 10:44:24;;;;;;;6.30;4.10;;;7.40;1.00;;;;;;4885316;29;20488;-92
2021/01/20 10:46:51;;;;;;;6.20;3.77;;;7.40;1.00;;;;;;4885561;29;20566;-91
2021/01/20 10:49:17;;;;;;;7.07;4.10;;;7.50;1.00;;;;;;4885092;29;20479;-92
2021/01/20 10:51:44;;;;;;;5.80;4.10;;;7.60;1.00;;;;;;4884755;29;20480;-91
2021/01/20 10:54:11;;;;;;;4.83;4.33;;;7.80;1.00;;;;;;4885570;29;20478;-92
2021/01/20 10:56:41;;;;;;;4.70;3.70;;;8.00;1.00;;;;;;4883992;29;20504;-91
2021/01/20 10:59:08;;;;;;;3.50;3.20;;;8.10;1.00;;;;;;4884772;29;20760;-92
2021/01/20 11:01:37;;;;;;;5.37;4.00;;;8.30;1.00;;;;;;4884246;29;20598;-91
2021/01/20 11:04:04;;;;;;;7.77;4.83;;;8.30;1.00;;;;;;4884681;29;20467;-91
2021/01/20 11:06:31;;;;;;;5.37;4.20;;;8.20;1.00;;;;;;4884919;29;20526;-91
2021/01/20 11:08:59;;;;;;;4.70;4.00;;;8.10;1.00;;;;;;4885217;29;20849;-91
2021/01/20 11:11:26;;;;;;;4.60;3.87;;;8.20;1.00;;;;;;4884211;29;20467;-91
2021/01/20 11:13:56;;;;;;;4.30;3.90;;;8.50;1.00;;;;;;4885086;29;20553;-91
2021/01/20 11:16:23;;;;;;;4.90;4.50;;;8.60;1.00;;;;;;4884700;29;20478;-91
2021/01/20 11:18:51;;;;;;;5.20;4.63;;;8.50;1.00;;;;;;4884350;29;20454;-91
2021/01/20 11:21:18;;;;;;;5.53;4.37;;;8.40;1.00;;;;;;4884066;29;20589;-91
2021/01/20 11:23:45;;;;;;;5.73;3.87;;;8.40;1.00;;;;;;4884489;29;20907;-91
2021/01/20 11:26:12;;;;;;;4.30;3.70;;;8.20;1.00;;;;;;4883976;29;20562;-91
2021/01/20 11:28:39;;;;;;;4.70;4.20;;;8.10;1.00;;;;;;4884549;29;20482;-91
2021/01/20 11:31:06;;;;;;;5.03;4.10;;;8.20;1.00;;;;;;4884369;29;20929;-91
2021/01/20 11:33:33;;;;;;;4.40;3.80;;;8.20;1.00;;;;;;4884146;29;20935;-91
2021/01/20 11:36:00;;;;;;;5.20;4.17;;;8.20;1.00;;;;;;4883821;29;20467;-91
2021/01/20 11:38:28;;;;;;;5.10;3.83;;;8.20;1.00;;;;;;4883127;29;20476;-91
2021/01/20 11:40:55;;;;;;;4.90;4.40;;;8.30;1.00;;;;;;4883797;29;20609;-91
2021/01/20 11:43:23;;;;;;;5.53;4.10;;;8.20;1.00;;;;;;4883975;29;20486;-91
2021/01/20 11:45:50;;;;;;;4.90;4.40;;;8.20;1.00;;;;;;4884488;29;20485;-92
2021/01/20 11:48:16;;;;;;;4.20;3.80;;;8.10;1.00;;;;;;4884171;29;20471;-91
2021/01/20 11:50:43;;;;;;;5.40;4.20;;;8.10;1.00;;;;;;4884261;29;20445;-90
2021/01/20 11:53:11;;;;;;;4.33;3.93;;;8.20;1.00;;;;;;4877064;29;20459;-91
2021/01/20 11:55:38;;;;;;;4.50;4.10;;;8.30;1.00;;;;;;4884019;29;20860;-90
2021/01/20 11:58:05;;;;;;;4.50;4.10;;;8.30;1.00;;;;;;4877635;29;20498;-90
2021/01/20 12:00:32;;;;;;;4.43;4.03;;;8.40;1.00;;;;;;4883519;29;20465;-91
2021/01/20 12:03:10;;;;;;;3.90;3.60;;;8.70;1.00;;;;;;4883671;29;20467;-93
2021/01/20 12:10:59;;;;;;;4.40;4.00;;;8.70;99.90;;;;;;4862634;29;20507;-90
2021/01/20 12:13:26;;;;;;;4.00;3.70;;;8.70;99.90;;;;;;4846770;29;20491;-90
2021/01/20 12:15:54;;;;;;;5.60;3.60;;;8.60;99.90;;;;;;4846435;29;20501;-90
2021/01/20 12:18:21;;;;;;;4.70;3.60;;;8.60;99.90;;;;;;4852509;29;20491;-90
2021/01/20 12:20:48;;;;;;;5.20;3.83;;;8.60;1.00;;;;;;4846546;29;20989;-90
2021/01/20 12:23:14;;;;;;;4.80;4.30;;;8.50;99.90;;;;;;4846502;29;20549;-89
2021/01/20 12:25:44;;;;;;;4.13;3.73;;;8.40;99.90;;;;;;4848329;29;20471;-89
2021/01/20 12:28:12;;;;;;;4.50;4.10;;;8.40;99.90;;;;;;4862490;29;20474;-89
2021/01/20 12:30:38;;;;;;;5.23;4.73;;;8.40;99.90;;;;;;4852628;29;20479;-89
2021/01/20 12:33:05;;;;;;;24.80;13.07;;;8.40;99.90;;;;;;4862962;29;20531;-90
2021/01/20 12:35:32;;;;;;;26.10;14.63;;;8.50;99.90;;;;;;4862079;29;20484;-89
2021/01/20 12:37:59;;;;;;;6.17;5.57;;;8.70;99.90;;;;;;4862340;29;20551;-89
2021/01/20 12:40:26;;;;;;;8.00;6.83;;;8.50;99.90;;;;;;4862184;29;20543;-89
2021/01/20 12:42:53;;;;;;;11.80;7.50;;;8.50;99.90;;;;;;4855192;29;20515;-89
2021/01/20 12:45:21;;;;;;;17.00;9.73;;;8.50;99.90;;;;;;4863985;29;20480;-89
2021/01/20 12:47:48;;;;;;;7.30;5.60;;;8.60;1.00;;;;;;4863370;29;20507;-90
2021/01/20 12:50:16;;;;;;;11.70;7.90;;;8.60;99.90;;;;;;4863292;29;20462;-89
2021/01/20 12:52:43;;;;;;;11.63;7.47;;;8.60;99.90;;;;;;4863844;29;20486;-89
2021/01/20 12:55:11;;;;;;;5.00;4.50;;;8.50;99.90;;;;;;4863782;29;20577;-89
2021/01/20 12:57:37;;;;;;;12.63;9.03;;;8.50;99.90;;;;;;4855599;29;20560;-89
2021/01/20 13:00:05;;;;;;;18.20;11.27;;;8.50;1.00;;;;;;4845438;29;20483;-89
2021/01/20 13:02:33;;;;;;;7.80;6.70;;;8.50;1.00;;;;;;4846458;29;20603;-89
2021/01/20 13:05:00;;;;;;;6.80;6.10;;;8.40;99.90;;;;;;4846137;29;20511;-89
2021/01/20 13:07:26;;;;;;;5.93;4.83;;;8.30;1.00;;;;;;4846187;29;20480;-89
2021/01/20 13:09:57;;;;;;;4.80;4.30;;;8.30;1.00;;;;;;4865711;29;20605;-89
2021/01/20 13:12:24;;;;;;;7.40;6.03;;;8.30;1.00;;;;;;4882480;29;20483;-89
2021/01/20 13:14:51;;;;;;;5.90;4.53;;;8.40;1.00;;;;;;4881267;29;20751;-89
2021/01/20 13:17:17;;;;;;;9.47;5.53;;;8.30;1.00;;;;;;4883114;29;20502;-89
2021/01/20 13:19:45;;;;;;;4.20;3.80;;;8.40;1.00;;;;;;4883062;29;20463;-89
2021/01/20 13:22:13;;;;;;;6.97;5.00;;;8.30;1.00;;;;;;4882399;29;20594;-89
2021/01/20 13:24:40;;;;;;;6.03;3.87;;;8.30;1.00;;;;;;4882058;29;20487;-89
2021/01/20 13:27:09;;;;;;;6.53;5.23;;;8.30;1.00;;;;;;4882643;29;20537;-90
2021/01/20 13:29:36;;;;;;;4.80;4.40;;;8.30;1.00;;;;;;4882815;29;20614;-90
2021/01/20 13:32:08;;;;;;;5.97;5.23;;;8.30;1.00;;;;;;4882186;29;20569;-91
2021/01/20 13:34:35;;;;;;;7.43;5.10;;;8.20;1.00;;;;;;4882227;29;20481;-90
2021/01/20 13:37:05;;;;;;;5.60;4.60;;;8.30;1.00;;;;;;4882985;29;20459;-90
2021/01/20 13:39:34;;;;;;;5.57;4.50;;;8.30;1.00;;;;;;4886149;29;20540;-91
2021/01/20 13:42:01;;;;;;;6.67;4.67;;;8.30;1.00;;;;;;4886249;29;20557;-91
2021/01/20 13:44:27;;;;;;;6.93;6.30;;;8.30;1.00;;;;;;4886125;29;20485;-91
2021/01/20 13:46:54;;;;;;;4.40;4.00;;;8.40;1.00;;;;;;4886251;29;20548;-91
2021/01/20 13:49:21;;;;;;;6.07;5.57;;;8.30;1.00;;;;;;4886447;29;20548;-91
2021/01/20 13:51:47;;;;;;;5.10;4.60;;;8.30;1.00;;;;;;4885917;29;20565;-90
2021/01/20 13:54:16;;;;;;;5.60;4.70;;;8.20;1.00;;;;;;4885768;29;20573;-90
2021/01/20 13:56:44;;;;;;;4.60;4.17;;;8.30;1.00;;;;;;4885748;29;20462;-90
2021/01/20 13:59:11;;;;;;;7.60;4.40;;;8.30;1.00;;;;;;4885449;29;20463;-90
2021/01/20 14:01:39;;;;;;;5.67;4.33;;;8.20;1.00;;;;;;4884822;29;20498;-91
2021/01/20 14:04:06;;;;;;;4.40;4.00;;;8.10;1.00;;;;;;4885509;29;20488;-90
2021/01/20 14:06:36;;;;;;;5.10;4.40;;;8.10;1.00;;;;;;4885154;29;20463;-91
2021/01/20 14:09:03;;;;;;;5.30;3.90;;;8.10;1.00;;;;;;4882155;29;20814;-90
2021/01/20 14:11:34;;;;;;;5.17;4.33;;;8.00;1.00;;;;;;4879287;29;20486;-91
2021/01/20 14:14:02;;;;;;;4.80;4.30;;;8.00;1.00;;;;;;4878552;29;20506;-91
2021/01/20 14:16:30;;;;;;;5.00;4.30;;;7.90;1.00;;;;;;4877428;29;20733;-91
2021/01/20 14:18:57;;;;;;;5.33;4.73;;;7.80;1.00;;;;;;4878857;29;20773;-91
2021/01/20 14:21:25;;;;;;;8.07;4.90;;;7.80;1.00;;;;;;4877645;29;20573;-91
2021/01/20 14:23:52;;;;;;;4.97;4.40;;;7.70;1.00;;;;;;4877981;29;20467;-92
2021/01/20 14:26:19;;;;;;;5.30;4.80;;;7.60;1.00;;;;;;4877519;29;20474;-91
2021/01/20 14:28:49;;;;;;;7.93;4.13;;;7.60;1.00;;;;;;4879314;29;20901;-92
2021/01/20 14:31:16;;;;;;;5.87;4.63;;;7.60;1.00;;;;;;4882024;29;20525;-92
2021/01/20 14:33:44;;;;;;;8.07;5.07;;;7.50;1.00;;;;;;4880356;29;20514;-92
2021/01/20 14:36:14;;;;;;;7.23;4.77;;;7.50;1.00;;;;;;4883884;29;20965;-92
2021/01/20 14:38:44;;;;;;;5.47;4.63;;;7.50;1.00;;;;;;4883215;29;20514;-92
2021/01/20 14:41:15;;;;;;;4.57;4.17;;;7.50;1.00;;;;;;4879158;29;20490;-92
2021/01/20 14:43:42;;;;;;;6.13;4.33;;;7.50;1.00;;;;;;4878152;29;20478;-91
2021/01/20 14:46:13;;;;;;;6.53;4.53;;;7.50;1.00;;;;;;4883966;29;20470;-93
2021/01/20 16:02:58;;;;;;;8.30;4.97;;;7.80;1.00;;;;;;655937;23;22042;-87
2021/01/20 16:05:28;;;;;;;6.63;4.60;;;7.80;1.00;;;;;;4830836;29;20491;-91
2021/01/20 16:07:57;;;;;;;6.87;4.20;;;7.80;1.00;;;;;;4827368;29;20481;-91
2021/01/20 16:10:24;;;;;;;8.50;4.40;;;7.80;1.00;;;;;;4828909;29;20762;-91
2021/01/20 16:12:54;;;;;;;5.30;4.50;;;7.80;1.00;;;;;;4828605;29;20448;-91
2021/01/20 16:15:23;;;;;;;7.20;4.10;;;7.80;1.00;;;;;;4810218;29;20561;-91
2021/01/20 16:21:23;;;;;;;7.30;4.23;;;7.80;1.00;;;;;;4821472;29;20817;-91
2021/01/20 16:24:36;;;;;;;6.20;4.23;;;7.80;1.00;;;;;;4802932;29;20923;-91
2021/01/20 16:27:06;;;;;;;5.77;4.63;;;7.80;1.00;;;;;;4814361;29;20555;-91
2021/01/20 16:29:35;;;;;;;6.13;4.37;;;7.90;1.00;;;;;;4845024;29;20491;-90
2021/01/20 16:32:03;;;;;;;14.67;11.20;;;7.90;1.00;;;;;;4848089;29;20925;-91
2021/01/20 16:34:29;;;;;;;12.00;9.43;;;7.80;1.00;;;;;;4846033;29;20522;-91
2021/01/20 16:37:00;;;;;;;11.07;7.57;;;7.80;1.00;;;;;;4844912;29;20533;-91
2021/01/20 16:39:30;;;;;;;10.30;7.00;;;7.90;1.00;;;;;;4845724;29;20559;-90
2021/01/20 16:45:38;;;;;;;5.20;4.00;;;7.90;1.00;;;;;;4836215;29;20472;-91
2021/01/20 16:48:23;;;;;;;5.37;4.87;;;8.00;1.00;;;;;;4844145;29;20903;-90
2021/01/20 16:51:08;;;;;;;7.20;5.00;;;8.00;1.00;;;;;;4844074;29;20564;-91
2021/01/20 16:53:37;;;;;;;9.43;4.93;;;8.00;1.00;;;;;;4838740;29;20619;-91
2021/01/20 16:56:06;;;;;;;5.40;4.90;;;8.00;1.00;;;;;;4841234;29;20552;-91
2021/01/20 16:58:33;;;;;;;5.87;4.43;;;8.10;1.00;;;;;;4844058;29;20447;-90
2021/01/20 17:01:00;;;;;;;9.80;6.03;;;8.10;1.00;;;;;;4843977;29;20485;-91
2021/01/20 17:03:27;;;;;;;8.77;5.50;;;8.10;1.00;;;;;;4843869;29;20468;-91
2021/01/20 17:05:55;;;;;;;10.03;5.60;;;8.10;1.00;;;;;;4844578;29;20461;-91
2021/01/20 17:08:31;;;;;;;5.53;4.70;;;8.10;1.00;;;;;;4840531;29;20492;-91
2021/01/20 17:11:02;;;;;;;7.20;4.90;;;8.00;1.00;;;;;;4843891;29;20464;-91
2021/01/20 17:13:59;;;;;;;5.03;4.53;;;8.00;1.00;;;;;;4846703;29;20480;-91
2021/01/20 17:16:45;;;;;;;8.63;4.90;;;8.00;1.00;;;;;;4843802;29;20472;-89
2021/01/20 17:19:12;;;;;;;5.17;4.67;;;8.00;1.00;;;;;;4860541;29;20518;-91
2021/01/20 17:21:43;;;;;;;8.03;5.23;;;8.00;1.00;;;;;;4866935;29;20559;-91
2021/01/20 17:24:10;;;;;;;7.23;4.10;;;7.90;1.00;;;;;;4866660;29;20483;-91
2021/01/20 17:26:38;;;;;;;5.10;4.27;;;7.90;1.00;;;;;;4866604;29;20522;-91
2021/01/20 17:29:05;;;;;;;5.80;4.40;;;7.90;1.00;;;;;;4866810;29;20570;-91
2021/01/20 17:31:48;;;;;;;;;;;;;;;;;;;;;
2021/01/20 17:34:18;;;;;;;5.50;4.17;;;8.00;1.00;;;;;;4861467;29;20456;-91
2021/01/20 17:36:48;;;;;;;6.00;4.70;;;8.00;1.00;;;;;;4866495;29;20495;-91
2021/01/20 17:39:15;;;;;;;4.27;3.87;;;8.00;1.00;;;;;;4866634;29;20490;-90
2021/01/20 17:41:43;;;;;;;9.20;4.80;;;7.90;1.00;;;;;;4866345;29;20513;-91
2021/01/20 17:44:11;;;;;;;6.00;4.73;;;7.90;1.00;;;;;;4866930;29;20730;-91
2021/01/20 17:46:37;;;;;;;6.57;4.10;;;8.00;1.00;;;;;;4866737;29;20479;-90
2021/01/20 17:49:14;;;;;;;7.27;5.00;;;8.00;1.00;;;;;;4866931;29;20507;-91
2021/01/20 17:51:40;;;;;;;7.43;5.57;;;8.00;1.00;;;;;;4865666;29;20473;-91
2021/01/20 17:54:07;;;;;;;5.33;4.30;;;8.00;1.00;;;;;;4866783;29;20523;-91
2021/01/20 17:56:36;;;;;;;10.00;4.50;;;8.00;1.00;;;;;;4866304;29;20498;-91
2021/01/20 17:59:07;;;;;;;10.77;6.07;;;8.10;1.00;;;;;;4866694;29;20878;-91
2021/01/20 18:01:36;;;;;;;5.57;4.97;;;8.10;1.00;;;;;;4866397;29;20598;-91
2021/01/20 18:04:05;;;;;;;5.33;4.10;;;8.20;1.00;;;;;;4866513;29;20490;-91
2021/01/20 18:06:40;;;;;;;5.30;4.80;;;8.20;1.00;;;;;;4864442;29;20491;-91
2021/01/20 18:09:13;;;;;;;6.37;5.00;;;8.10;1.00;;;;;;4866448;29;20483;-91
2021/01/20 18:11:40;;;;;;;6.53;5.50;;;8.20;1.00;;;;;;4865697;29;20930;-91
2021/01/20 18:14:20;;;;;;;5.13;4.00;;;8.20;1.00;;;;;;4867916;29;20495;-94
2021/01/20 18:16:54;;;;;;;5.90;4.20;;;8.20;1.00;;;;;;4859939;29;20472;-91
2021/01/20 18:19:21;;;;;;;4.33;3.90;;;8.30;1.00;;;;;;4860244;29;20510;-91
2021/01/20 18:21:51;;;;;;;6.37;3.97;;;8.30;1.00;;;;;;4865881;29;20507;-91
2021/01/20 18:24:17;;;;;;;7.80;4.17;;;8.40;1.00;;;;;;4865096;29;20965;-91
2021/01/20 18:26:44;;;;;;;3.83;3.43;;;8.30;1.00;;;;;;4865763;29;20570;-90
2021/01/20 18:29:12;;;;;;;5.10;4.43;;;8.40;1.00;;;;;;4864794;29;20490;-91
2021/01/20 18:31:41;;;;;;;6.07;4.10;;;8.40;1.00;;;;;;4864840;29;20997;-90
2021/01/20 18:34:10;;;;;;;5.67;4.03;;;8.30;1.00;;;;;;4865313;29;20539;-91
2021/01/20 18:36:37;;;;;;;4.33;3.93;;;8.30;1.00;;;;;;4865466;29;20471;-93
2021/01/20 18:39:12;;;;;;;8.13;4.47;;;8.30;1.50;;;;;;4865269;29;20487;-90
2021/01/20 18:41:41;;;;;;;5.03;4.20;;;8.30;1.00;;;;;;4865234;29;20528;-91
2021/01/20 18:44:17;;;;;;;8.33;4.33;;;8.40;3.00;;;;;;4865563;29;20570;-91
2021/01/20 18:49:44;;;;;;;5.00;3.43;;;8.40;1.00;;;;;;4853412;29;20504;-90
2021/01/20 18:52:26;;;;;;;4.20;3.80;;;8.40;5.20;;;;;;4864538;29;20482;-91
2021/01/20 18:54:52;;;;;;;9.40;4.00;;;8.40;1.60;;;;;;4862584;29;20514;-91
2021/01/20 18:57:42;;;;;;;5.70;4.33;;;8.50;1.00;;;;;;4863182;29;20926;-91
2021/01/20 19:00:37;;;;;;;5.73;4.30;;;8.40;3.80;;;;;;4860646;29;20476;-91
2021/01/20 19:03:07;;;;;;;7.53;4.73;;;8.30;24.80;;;;;;4859670;29;20503;-92
2021/01/20 19:11:54;;;;;;;4.87;3.90;;;8.40;27.40;;;;;;4844045;29;20554;-91
2021/01/20 19:14:21;;;;;;;3.80;3.50;;;8.30;34.00;;;;;;4846447;29;20548;-91
2021/01/20 19:20:39;;;;;;;6.57;4.07;;;8.50;18.40;;;;;;4842792;29;20507;-91
2021/01/20 19:26:08;;;;;;;4.00;3.10;;;8.50;11.00;;;;;;4789627;29;20467;-91
2021/01/20 19:28:35;;;;;;;4.37;3.97;;;8.60;1.00;;;;;;4834913;29;20481;-91
2021/01/20 19:31:09;;;;;;;5.60;4.10;;;8.60;1.00;;;;;;4846188;29;20464;-91
2021/01/20 19:33:41;;;;;;;8.00;3.90;;;8.60;1.00;;;;;;4845184;29;20491;-91
2021/01/20 19:36:08;;;;;;;4.47;3.40;;;8.60;1.00;;;;;;4845196;29;20487;-91
2021/01/20 19:38:38;;;;;;;5.07;3.93;;;8.70;1.00;;;;;;4846394;29;20468;-91
2021/01/20 19:41:04;;;;;;;10.40;4.37;;;8.70;1.00;;;;;;4845633;29;20503;-91
2021/01/20 19:43:45;;;;;;;7.17;4.57;;;8.60;1.00;;;;;;4846074;29;20484;-91
2021/01/20 19:46:27;;;;;;;5.50;4.53;;;8.60;1.00;;;;;;4845202;29;20485;-91
2021/01/20 19:48:55;;;;;;;8.33;5.57;;;8.60;1.00;;;;;;4841134;29;20481;-91
2021/01/20 19:51:46;;;;;;;5.47;4.73;;;8.60;1.00;;;;;;4845941;29;20461;-91
2021/01/20 19:57:00;;;;;;;6.10;3.27;;;8.60;1.00;;;;;;4835419;29;20472;-91
2021/01/20 19:59:32;;;;;;;5.63;3.97;;;8.70;1.00;;;;;;4845426;29;20820;-91
2021/01/20 20:02:16;;;;;;;6.97;3.70;;;8.70;1.00;;;;;;4845801;29;20680;-91
2021/01/20 20:08:24;;;;;;;4.30;3.80;;;8.70;1.00;;;;;;4841381;29;20970;-91
2021/01/20 20:11:53;;;;;;;4.10;3.20;;;8.70;1.00;;;;;;4845545;29;20824;-91
2021/01/20 20:14:36;;;;;;;5.83;3.90;;;8.80;1.00;;;;;;4786918;30;20486;-90
2021/01/20 20:17:07;;;;;;;4.30;3.90;;;8.70;1.00;;;;;;4788377;29;20606;-91
2021/01/20 20:20:21;;;;;;;6.17;4.03;;;8.60;1.00;;;;;;4839405;29;20552;-91
2021/01/20 20:23:19;;;;;;;;;;;;;;;;;;;;;
2021/01/20 20:25:48;;;;;;;6.40;3.60;;;8.70;1.00;;;;;;4837314;29;20473;-91
2021/01/20 20:31:43;;;;;;;3.87;3.53;;;8.70;1.00;;;;;;4836760;29;20483;-91
2021/01/20 20:34:47;;;;;;;4.47;3.03;;;8.70;1.00;;;;;;4841195;29;20479;-91
2021/01/20 20:37:46;;;;;;;4.30;3.13;;;8.70;1.00;;;;;;4841075;29;20479;-91
2021/01/20 20:42:57;;;;;;;4.30;3.90;;;8.80;1.00;;;;;;4842200;29;20508;-91
2021/01/20 20:45:42;;;;;;;3.37;3.07;;;8.80;1.00;;;;;;4839738;29;20233;-91
